Rib Mountain, Wisconsin
Current Conditions -  °F | °C
As of 11:54 AM on Monday 22 Dec 2014 (Local Time) from KAUW Reporting Station
Haze Haze  
Wind Chill: 27°   Ceiling: 900
Heat Index: 34°   Visibility: 3mi
Dew Point: 32°   Wind: 8mph
Humidity: 92%   Direction: 130°SE
Pressure: 29.76"   Gusts: NA
Location:  45.0598°N, 89.4871°W
Report Text: KAUW 221754Z AUTO 13007KT 3SM BR OVC009 01/00 A2976 RMK AO2 CIG 007V011 SLP094 60000 T00110000 10011 20000 58018
Loading
Personal Weather Stations






























Interactive Weather Map New forecast layout! Learn more

10-Day Weather Forecast

Advertisements
Track Severe Weather on mobile